AleStat.com

Zmiany w rankingu / Ranking

Z dnia w okresie

pokaz dodatkowe opcje ukryj dodatkowe opcje
Pokaż wykres Ukryj wykres
Strona Pozycja lokalna 2020-09-16 Pozycja globalna 2020-09-16 AleStat Rank
stackoverrun.com  Pokaż na alexa.com stackoverrun.com  Przekieruj do stackoverrun.com 61 / +929 990 dnia 2020-09-15 1 820 / +32256 34 076 dnia 2020-09-15 207.06
docker.com  Pokaż na alexa.com docker.com  Przekieruj do docker.com 231 / +9901 10 132 dnia 2020-09-15 1 636 / +29330 30 966 dnia 2020-09-15 205.00
myspace.com  Pokaż na alexa.com myspace.com  Przekieruj do myspace.com Welcome to the new Myspace! 612 / +5819 6 431 dnia 2020-09-15 2 057 / +29917 31 974 dnia 2020-09-15 203.58
refinery29.com  Pokaż na alexa.com refinery29.com  Przekieruj do refinery29.com 2013 Fashion, Winter Style and Beauty Guides 566 / +7068 7 634 dnia 2020-09-15 1 909 / +38581 40 490 dnia 2020-09-15 202.30
nbastreams.xyz  Pokaż na alexa.com nbastreams.xyz  Przekieruj do nbastreams.xyz 528 / +12627 13 155 dnia 2020-09-15 3 102 / +34119 37 221 dnia 2020-09-15 199.35
ionicframework.com  Pokaż na alexa.com ionicframework.com  Przekieruj do ionicframework.com 788 / +5680 6 468 dnia 2020-09-15 2 785 / +29518 32 303 dnia 2020-09-15 199.08
influencermarketinghub.com  Pokaż na alexa.com influencermarketinghub.com  Przekieruj do influencermarketinghub.com 699 / +6997 7 696 dnia 2020-09-15 2 417 / +38537 40 954 dnia 2020-09-15 198.79
pagesix.com  Pokaż na alexa.com pagesix.com  Przekieruj do pagesix.com 515 / +13395 13 910 dnia 2020-09-15 3 021 / +35687 38 708 dnia 2020-09-15 198.78
unieuro.it  Pokaż na alexa.com unieuro.it  Przekieruj do unieuro.it 32 / +322 354 dnia 2020-09-15 3 100 / +35396 38 496 dnia 2020-09-15 198.54
mailgun.com  Pokaż na alexa.com mailgun.com  Przekieruj do mailgun.com Mailgun: Programmable Mail Servers 295 / +2283 2 578 dnia 2020-09-15 3 101 / +35611 38 712 dnia 2020-09-15 198.33
managewp.com  Pokaż na alexa.com managewp.com  Przekieruj do managewp.com Manage WordPress Sites from One Dashboard – ManageWP.com 882 / +6452 7 334 dnia 2020-09-15 3 159 / +35606 38 765 dnia 2020-09-15 197.96
afr.com  Pokaż na alexa.com afr.com  Przekieruj do afr.com Financial Review - business, finance and investment news | afr.com 27 / +218 245 dnia 2020-09-15 3 726 / +32593 36 319 dnia 2020-09-15 195.82
indiatvnews.com  Pokaż na alexa.com indiatvnews.com  Przekieruj do indiatvnews.com Indiatvnews.com - Latest News, India News,Breaking News,Business, Bollywood, Cricket, Lifestyle, Masala News, Politics, Sports, Health and Videos 259 / +1954 2 213 dnia 2020-09-15 3 671 / +34304 37 975 dnia 2020-09-15 195.69
git-scm.com  Pokaż na alexa.com git-scm.com  Przekieruj do git-scm.com Git 997 / +6295 7 292 dnia 2020-09-15 3 643 / +34887 38 530 dnia 2020-09-15 195.47
gigya.com  Pokaż na alexa.com gigya.com  Przekieruj do gigya.com Social Infrastructure | Gigya 937 / +5597 6 534 dnia 2020-09-15 3 430 / +29323 32 753 dnia 2020-09-15 195.35
themoviedb.org  Pokaż na alexa.com themoviedb.org  Przekieruj do themoviedb.org The Movie Database 815 / +6981 7 796 dnia 2020-09-15 2 920 / +38762 41 682 dnia 2020-09-15 194.78
macworld.co.uk  Pokaż na alexa.com macworld.co.uk  Przekieruj do macworld.co.uk Macworld UK 25 / +377 402 dnia 2020-09-15 2 839 / +27202 30 041 dnia 2020-09-15 194.74
invideo.io  Pokaż na alexa.com invideo.io  Przekieruj do invideo.io 161 / +1479 1 640 dnia 2020-09-15 2 157 / +25297 27 454 dnia 2020-09-15 193.10
zbwg.cc  Pokaż na alexa.com zbwg.cc  Przekieruj do zbwg.cc 785 / +11045 11 830 dnia 2020-09-15 4 156 / +30499 34 655 dnia 2020-09-15 192.55
122.gov.cn  Pokaż na alexa.com 122.gov.cn  Przekieruj do 122.gov.cn 806 / +10707 11 513 dnia 2020-09-15 4 239 / +29961 34 200 dnia 2020-09-15 191.65
excelsior.com.mx  Pokaż na alexa.com excelsior.com.mx  Przekieruj do excelsior.com.mx 20 / +200 220 dnia 2020-09-15 3 651 / +27365 31 016 dnia 2020-09-15 191.02
braze.com  Pokaż na alexa.com braze.com  Przekieruj do braze.com 868 / +12254 13 122 dnia 2020-09-15 4 549 / +32582 37 131 dnia 2020-09-15 190.91
epey.com  Pokaż na alexa.com epey.com  Przekieruj do epey.com 56 / +294 350 dnia 2020-09-15 4 501 / +30248 34 749 dnia 2020-09-15 190.44
authorize.net  Pokaż na alexa.com authorize.net  Przekieruj do authorize.net Payment Gateway to Accept Online Payments - Authorize.Net 491 / +4743 5 234 dnia 2020-09-15 1 600 / +23500 25 100 dnia 2020-09-15 189.53
bittrex.com  Pokaż na alexa.com bittrex.com  Przekieruj do bittrex.com 727 / +9469 10 196 dnia 2020-09-15 3 904 / +27223 31 127 dnia 2020-09-15 189.47
ezinearticles.com  Pokaż na alexa.com ezinearticles.com  Przekieruj do ezinearticles.com EzineArticles Submission - Submit Your Best Quality Original Articles For Massive Exposure, Ezine Publishers Get 25 Free Article Reprints 240 / +1487 1 727 dnia 2020-09-15 3 302 / +25718 29 020 dnia 2020-09-15 188.93
pi-news.net  Pokaż na alexa.com pi-news.net  Przekieruj do pi-news.net Politically Incorrect 78 / +608 686 dnia 2020-09-15 4 281 / +36896 41 177 dnia 2020-09-15 188.82
uspto.gov  Pokaż na alexa.com uspto.gov  Przekieruj do uspto.gov United States Patent and Trademark Office 340 / +4606 4 946 dnia 2020-09-15 999 / +22630 23 629 dnia 2020-09-15 188.61
latestsocial.com  Pokaż na alexa.com latestsocial.com  Przekieruj do latestsocial.com 880 / +13769 14 649 dnia 2020-09-15 4 609 / +35595 40 204 dnia 2020-09-15 188.51
personalcapital.com  Pokaż na alexa.com personalcapital.com  Przekieruj do personalcapital.com Personal Capital - Personal Capital | Asset & Money Management - Financial Planning 1 284 / +5502 6 786 dnia 2020-09-15 4 726 / +29418 34 144 dnia 2020-09-15 188.48
sproutsocial.com  Pokaż na alexa.com sproutsocial.com  Przekieruj do sproutsocial.com Social Media Management, Social CRM for Business | Sprout Social 322 / +8283 8 605 dnia 2020-09-15 926 / +45645 46 571 dnia 2020-09-15 188.45
breezy.hr  Pokaż na alexa.com breezy.hr  Przekieruj do breezy.hr 1 219 / +5357 6 576 dnia 2020-09-15 4 536 / +28492 33 028 dnia 2020-09-15 188.38
notepad-plus-plus.org  Pokaż na alexa.com notepad-plus-plus.org  Przekieruj do notepad-plus-plus.org Notepad++ Home 292 / +2123 2 415 dnia 2020-09-15 4 210 / +37612 41 822 dnia 2020-09-15 188.03
up-4ever.org  Pokaż na alexa.com up-4ever.org  Przekieruj do up-4ever.org 24 / +147 171 dnia 2020-09-15 4 390 / +37033 41 423 dnia 2020-09-15 187.85
beebom.com  Pokaż na alexa.com beebom.com  Przekieruj do beebom.com Beebom - Connecting People with photos 320 / +1672 1 992 dnia 2020-09-15 4 700 / +28665 33 365 dnia 2020-09-15 187.75
genk.vn  Pokaż na alexa.com genk.vn  Przekieruj do genk.vn Trang thông tin dành cho tín đồ công nghệ - GenK.vn 21 / +182 203 dnia 2020-09-15 5 132 / +32390 37 522 dnia 2020-09-15 187.46
appcast.io  Pokaż na alexa.com appcast.io  Przekieruj do appcast.io 1 206 / +5224 6 430 dnia 2020-09-15 4 487 / +27485 31 972 dnia 2020-09-15 187.04
sweetwater.com  Pokaż na alexa.com sweetwater.com  Przekieruj do sweetwater.com Sweetwater.com 927 / +4859 5 786 dnia 2020-09-15 3 335 / +24964 28 299 dnia 2020-09-15 186.69
poste.dz  Pokaż na alexa.com poste.dz  Przekieruj do poste.dz 11 / +27 38 dnia 2020-09-15 5 332 / +31145 36 477 dnia 2020-09-15 186.22
questdiagnostics.com  Pokaż na alexa.com questdiagnostics.com  Przekieruj do questdiagnostics.com Quest Diagnostics : Homepage 1 344 / +5303 6 647 dnia 2020-09-15 4 984 / +28464 33 448 dnia 2020-09-15 186.00
consensu.org  Pokaż na alexa.com consensu.org  Przekieruj do consensu.org 1 075 / +11292 12 367 dnia 2020-09-15 5 354 / +30404 35 758 dnia 2020-09-15 185.80
ntt.com  Pokaż na alexa.com ntt.com  Przekieruj do ntt.com 149 / +755 904 dnia 2020-09-15 3 423 / +24779 28 202 dnia 2020-09-15 185.75
dl-x.com  Pokaż na alexa.com dl-x.com  Przekieruj do dl-x.com 228 / +841 1 069 dnia 2020-09-15 5 191 / +28442 33 633 dnia 2020-09-15 184.89
ebanking-services.com  Pokaż na alexa.com ebanking-services.com  Przekieruj do ebanking-services.com 1 113 / +4893 6 006 dnia 2020-09-15 4 074 / +25505 29 579 dnia 2020-09-15 184.75
net-entreprises.fr  Pokaż na alexa.com net-entreprises.fr  Przekieruj do net-entreprises.fr net-entreprises.fr, le site officiel des déclarations sociales 92 / +498 590 dnia 2020-09-15 5 572 / +30552 36 124 dnia 2020-09-15 184.65
instant-gaming.com  Pokaż na alexa.com instant-gaming.com  Przekieruj do instant-gaming.com Instant Gaming: kupić kluczy CD do komputera najtańsza w internecie, i otrzymywać je tam 24/7! 74 / +403 477 dnia 2020-09-15 4 351 / +25932 30 283 dnia 2020-09-15 184.50
mzol7lbm.com  Pokaż na alexa.com mzol7lbm.com  Przekieruj do mzol7lbm.com 1 116 / +11026 12 142 dnia 2020-09-15 5 564 / +29737 35 301 dnia 2020-09-15 184.22
bet-1x18533.com  Pokaż na alexa.com bet-1x18533.com  Przekieruj do bet-1x18533.com 922 / -628 294 dnia 2020-09-15 4 812 / +26818 31 630 dnia 2020-09-15 184.18
axshare.com  Pokaż na alexa.com axshare.com  Przekieruj do axshare.com 767 / +8619 9 386 dnia 2020-09-15 4 078 / +25152 29 230 dnia 2020-09-15 183.81
netlify.com  Pokaż na alexa.com netlify.com  Przekieruj do netlify.com 976 / +14487 15 463 dnia 2020-09-15 4 995 / +37022 42 017 dnia 2020-09-15 183.76
upv.es  Pokaż na alexa.com upv.es  Przekieruj do upv.es 63 / +387 450 dnia 2020-09-15 5 469 / +34967 40 436 dnia 2020-09-15 183.70
maildealer.jp  Pokaż na alexa.com maildealer.jp  Przekieruj do maildealer.jp [LE[ǗVFANo.1@[fB[[ 244 / +897 1 141 dnia 2020-09-15 5 676 / +33843 39 519 dnia 2020-09-15 183.48
mci.gov.sa  Pokaż na alexa.com mci.gov.sa  Przekieruj do mci.gov.sa وزارة التجارة والصناعة 35 / +115 150 dnia 2020-09-15 5 720 / +29640 35 360 dnia 2020-09-15 183.29
esunbank.com.tw  Pokaż na alexa.com esunbank.com.tw  Przekieruj do esunbank.com.tw 56 / +195 251 dnia 2020-09-15 5 080 / +26955 32 035 dnia 2020-09-15 183.12
platzi.com  Pokaż na alexa.com platzi.com  Przekieruj do platzi.com Platzi Online education that inspires commitment and community 10 / +79 89 dnia 2020-09-15 4 883 / +26294 31 177 dnia 2020-09-15 182.77
fu-berlin.de  Pokaż na alexa.com fu-berlin.de  Przekieruj do fu-berlin.de Freie Universität Berlin: Startseite 111 / +521 632 dnia 2020-09-15 5 919 / +33397 39 316 dnia 2020-09-15 182.31
amara.com  Pokaż na alexa.com amara.com  Przekieruj do amara.com 502 Bad Gateway 86 / +401 487 dnia 2020-09-15 6 009 / +32796 38 805 dnia 2020-09-15 182.10
totheglory.im  Pokaż na alexa.com totheglory.im  Przekieruj do totheglory.im 452 / +2098 2 550 dnia 2020-09-15 5 830 / +28744 34 574 dnia 2020-09-15 181.89
canna.to  Pokaż na alexa.com canna.to  Przekieruj do canna.to CannaPower! 90 / +407 497 dnia 2020-09-15 4 778 / +25450 30 228 dnia 2020-09-15 181.33
cpalead.com  Pokaż na alexa.com cpalead.com  Przekieruj do cpalead.com 298 / +2267 2 565 dnia 2020-09-15 4 334 / +40186 44 520 dnia 2020-09-15 181.02
poloniex.com  Pokaż na alexa.com poloniex.com  Przekieruj do poloniex.com 1 078 / +9418 10 496 dnia 2020-09-15 5 360 / +26512 31 872 dnia 2020-09-15 180.90
docero.com.br  Pokaż na alexa.com docero.com.br  Przekieruj do docero.com.br 656 / +7823 8 479 dnia 2020-09-15 3 652 / +23492 27 144 dnia 2020-09-15 180.66
markethive.com  Pokaż na alexa.com markethive.com  Przekieruj do markethive.com 969 / +4547 5 516 dnia 2020-09-15 3 537 / +23258 26 795 dnia 2020-09-15 180.35
uniroma1.it  Pokaż na alexa.com uniroma1.it  Przekieruj do uniroma1.it 57 / +216 273 dnia 2020-09-15 5 282 / +25763 31 045 dnia 2020-09-15 179.70
51cto.com  Pokaż na alexa.com 51cto.com  Przekieruj do 51cto.com 51CTO.COM - 技术成就梦想 - 中国领先的IT技术网站 398 / +2047 2 445 dnia 2020-09-15 4 712 / +24688 29 400 dnia 2020-09-15 179.65
khan.co.kr  Pokaż na alexa.com khan.co.kr  Przekieruj do khan.co.kr 경향신문 30 / +158 188 dnia 2020-09-15 2 636 / +22071 24 707 dnia 2020-09-15 179.59
cafemom.com  Pokaż na alexa.com cafemom.com  Przekieruj do cafemom.com CafeMom - Moms Connecting About Pregnancy, Babies, Home, Health, and More 1 721 / +5724 7 445 dnia 2020-09-15 6 435 / +32836 39 271 dnia 2020-09-15 179.51
upworthy.com  Pokaż na alexa.com upworthy.com  Przekieruj do upworthy.com Upworthy: Things that matter. Pass 'em on. 1 750 / +5571 7 321 dnia 2020-09-15 6 538 / +32128 38 666 dnia 2020-09-15 179.21
vogue.com  Pokaż na alexa.com vogue.com  Przekieruj do vogue.com Mode, Trends, Beauty und People - VOGUE 970 / +4466 5 436 dnia 2020-09-15 3 540 / +22845 26 385 dnia 2020-09-15 178.86
business.gov.au  Pokaż na alexa.com business.gov.au  Przekieruj do business.gov.au business.gov.au 26 / +151 177 dnia 2020-09-15 3 620 / +22861 26 481 dnia 2020-09-15 178.59
nyahentai.com  Pokaż na alexa.com nyahentai.com  Przekieruj do nyahentai.com 1 123 / +15030 16 153 dnia 2020-09-15 5 588 / +37625 43 213 dnia 2020-09-15 178.50
ard.de  Pokaż na alexa.com ard.de  Przekieruj do ard.de ARD.de - Homepage 107 / +415 522 dnia 2020-09-15 5 773 / +26257 32 030 dnia 2020-09-15 178.40
codebeautify.org  Pokaż na alexa.com codebeautify.org  Przekieruj do codebeautify.org 1 443 / +11741 13 184 dnia 2020-09-15 6 747 / +30532 37 279 dnia 2020-09-15 178.07
support.wix.com  Pokaż na alexa.com support.wix.com  Przekieruj do support.wix.com Support Homepage 622 / +4251 4 873 dnia 2020-09-15 2 094 / +21214 23 308 dnia 2020-09-15 178.06
about.com  Pokaż na alexa.com about.com  Przekieruj do about.com About.com: Do more. 1 792 / +5222 7 014 dnia 2020-09-15 6 719 / +29654 36 373 dnia 2020-09-15 177.87
mrskin.com  Pokaż na alexa.com mrskin.com  Przekieruj do mrskin.com Nude Celebs in Pics, Clips, and HD Movies | Mr. Skin 1 164 / +4538 5 702 dnia 2020-09-15 4 307 / +23481 27 788 dnia 2020-09-15 177.80
tjpi.jus.br  Pokaż na alexa.com tjpi.jus.br  Przekieruj do tjpi.jus.br 1 396 / +13470 14 866 dnia 2020-09-15 6 590 / +34101 40 691 dnia 2020-09-15 177.55
gamovideo.com  Pokaż na alexa.com gamovideo.com  Przekieruj do gamovideo.com 1 451 / +11262 12 713 dnia 2020-09-15 6 776 / +29524 36 300 dnia 2020-09-15 177.49
priberam.org  Pokaż na alexa.com priberam.org  Przekieruj do priberam.org 348 / +6594 6 942 dnia 2020-09-15 2 201 / +21163 23 364 dnia 2020-09-15 177.42
ec.com.pk  Pokaż na alexa.com ec.com.pk  Przekieruj do ec.com.pk 1 465 / +12641 14 106 dnia 2020-09-15 6 840 / +32325 39 165 dnia 2020-09-15 177.35
securekeyconcierge.com  Pokaż na alexa.com securekeyconcierge.com  Przekieruj do securekeyconcierge.com SecureKey Concierge 47 / +192 239 dnia 2020-09-15 4 921 / +24172 29 093 dnia 2020-09-15 177.25
creativessigns.in  Pokaż na alexa.com creativessigns.in  Przekieruj do creativessigns.in 1 479 / +11683 13 162 dnia 2020-09-15 6 897 / +30340 37 237 dnia 2020-09-15 177.18
opendoor.com  Pokaż na alexa.com opendoor.com  Przekieruj do opendoor.com Open Door Networks - Macintosh Internet Security, iPhone and iPad apps 1 048 / +4395 5 443 dnia 2020-09-15 3 806 / +22594 26 400 dnia 2020-09-15 176.84
um.es  Pokaż na alexa.com um.es  Przekieruj do um.es Universidad de Murcia 87 / +311 398 dnia 2020-09-15 6 912 / +29385 36 297 dnia 2020-09-15 176.67
katekyo-nagano.com  Pokaż na alexa.com katekyo-nagano.com  Przekieruj do katekyo-nagano.com 1 273 / +14617 15 890 dnia 2020-09-15 6 140 / +36680 42 820 dnia 2020-09-15 176.66
getdrip.com  Pokaż na alexa.com getdrip.com  Przekieruj do getdrip.com 1 089 / +7475 8 564 dnia 2020-09-15 3 967 / +42411 46 378 dnia 2020-09-15 176.60
hessen.de  Pokaż na alexa.com hessen.de  Przekieruj do hessen.de 1 429 / +13633 15 062 dnia 2020-09-15 6 693 / +34392 41 085 dnia 2020-09-15 176.58
direct-energie.com  Pokaż na alexa.com direct-energie.com  Przekieruj do direct-energie.com Gaz électricité : Direct Energie, économiser énergie - fournisseur energie gaz et électricité 115 / +455 570 dnia 2020-09-15 6 949 / +29001 35 950 dnia 2020-09-15 176.21
popjav.tv  Pokaż na alexa.com popjav.tv  Przekieruj do popjav.tv 283 / +886 1 169 dnia 2020-09-15 6 639 / +34983 41 622 dnia 2020-09-15 176.17
mlbshop.com  Pokaż na alexa.com mlbshop.com  Przekieruj do mlbshop.com 1 544 / +12015 13 559 dnia 2020-09-15 7 108 / +30946 38 054 dnia 2020-09-15 176.09
yenicaggazetesi.com.tr  Pokaż na alexa.com yenicaggazetesi.com.tr  Przekieruj do yenicaggazetesi.com.tr 79 / +259 338 dnia 2020-09-15 6 556 / +27068 33 624 dnia 2020-09-15 176.00
epizy.com  Pokaż na alexa.com epizy.com  Przekieruj do epizy.com 567 / +7022 7 589 dnia 2020-09-15 3 256 / +21775 25 031 dnia 2020-09-15 175.89
mabangerp.com  Pokaż na alexa.com mabangerp.com  Przekieruj do mabangerp.com 545 / +6956 7 501 dnia 2020-09-15 3 162 / +21629 24 791 dnia 2020-09-15 175.66
adac.de  Pokaż na alexa.com adac.de  Przekieruj do adac.de ADAC - Ihr Partner in allen Fragen rund um die Mobilität. (Allgemeiner Deutscher Automobil-Club) 133 / +516 649 dnia 2020-09-15 7 007 / +33470 40 477 dnia 2020-09-15 175.58
codingnepalweb.com  Pokaż na alexa.com codingnepalweb.com  Przekieruj do codingnepalweb.com 799 / +163971 164 770 dnia 2020-09-15 4 205 / +266007 270 212 dnia 2020-09-15 175.45
0101.co.jp  Pokaż na alexa.com 0101.co.jp  Przekieruj do 0101.co.jp 279 / +898 1 177 dnia 2020-09-15 6 486 / +36091 42 577 dnia 2020-09-15 175.43
rollercoin.com  Pokaż na alexa.com rollercoin.com  Przekieruj do rollercoin.com 131 / +5880 6 011 dnia 2020-09-15 1 080 / +19868 20 948 dnia 2020-09-15 175.36
uff.br  Pokaż na alexa.com uff.br  Przekieruj do uff.br 92 / +302 394 dnia 2020-09-15 6 991 / +33968 40 959 dnia 2020-09-15 175.19
hamusoku.com  Pokaż na alexa.com hamusoku.com  Przekieruj do hamusoku.com ハムスター速報 160 / +673 833 dnia 2020-09-15 3 672 / +22016 25 688 dnia 2020-09-15 175.19
paygent.co.jp  Pokaż na alexa.com paygent.co.jp  Przekieruj do paygent.co.jp 1 583 / +11444 13 027 dnia 2020-09-15 7 274 / +29715 36 989 dnia 2020-09-15 174.88
Ważne: nasze strony wykorzystują pliki cookies.

Bez tych plików serwis nie będzie działał poprawnie. W każdej chwili, w programie służącym do obsługi internetu, można zmienić ustawienia dotyczące cookies. Korzystanie z naszego serwisu bez zmiany ustawień oznacza, że będą one zapisane w pamięci urządzenia. Więcej informacji w Polityce prywatności.

Zapoznałem się z informacją